sensor_id;sensor_type;location;lat;lon;timestamp;temperature;humidity
22940;DHT22;11636;52.086;5.090;2023-08-01T00:00:48;15.70;99.90
22940;DHT22;11636;52.086;5.090;2023-08-01T00:03:35;15.80;99.90
22940;DHT22;11636;52.086;5.090;2023-08-01T00:06:29;15.80;99.90
22940;DHT22;11636;52.086;5.090;2023-08-01T00:09:16;15.80;99.90
22940;DHT22;11636;52.086;5.090;2023-08-01T00:12:10;15.70;99.90
22940;DHT22;11636;52.086;5.090;2023-08-01T00:15:04;15.70;99.90
22940;DHT22;11636;52.086;5.090;2023-08-01T00:17:52;15.60;99.90
22940;DHT22;11636;52.086;5.090;2023-08-01T00:20:45;15.60;99.90
22940;DHT22;11636;52.086;5.090;2023-08-01T00:23:32;15.60;99.90
22940;DHT22;11636;52.086;5.090;2023-08-01T00:26:26;15.60;99.90
22940;DHT22;11636;52.086;5.090;2023-08-01T00:29:13;15.60;99.90
22940;DHT22;11636;52.086;5.090;2023-08-01T00:32:07;15.60;99.90
22940;DHT22;11636;52.086;5.090;2023-08-01T00:34:54;15.60;99.90
22940;DHT22;11636;52.086;5.090;2023-08-01T00:37:48;15.60;99.90
22940;DHT22;11636;52.086;5.090;2023-08-01T00:40:35;15.60;99.90
22940;DHT22;11636;52.086;5.090;2023-08-01T00:43:29;15.60;99.90
22940;DHT22;11636;52.086;5.090;2023-08-01T00:46:24;15.60;99.90
22940;DHT22;11636;52.086;5.090;2023-08-01T00:49:12;15.50;99.90
22940;DHT22;11636;52.086;5.090;2023-08-01T00:52:07;15.50;99.90
22940;DHT22;11636;52.086;5.090;2023-08-01T00:54:55;15.50;99.90
22940;DHT22;11636;52.086;5.090;2023-08-01T00:57:49;15.50;99.90
22940;DHT22;11636;52.086;5.090;2023-08-01T01:00:37;15.50;99.90
22940;DHT22;11636;52.086;5.090;2023-08-01T01:03:33;15.50;99.90
22940;DHT22;11636;52.086;5.090;2023-08-01T01:06:32;15.40;99.90
22940;DHT22;11636;52.086;5.090;2023-08-01T01:09:29;15.40;99.90
22940;DHT22;11636;52.086;5.090;2023-08-01T01:12:22;15.40;99.90
22940;DHT22;11636;52.086;5.090;2023-08-01T01:15:09;15.30;99.90
22940;DHT22;11636;52.086;5.090;2023-08-01T01:18:03;15.30;99.90
22940;DHT22;11636;52.086;5.090;2023-08-01T01:20:50;15.30;99.90
22940;DHT22;11636;52.086;5.090;2023-08-01T01:23:44;15.30;99.90
22940;DHT22;11636;52.086;5.090;2023-08-01T01:26:41;15.30;99.90
22940;DHT22;11636;52.086;5.090;2023-08-01T01:29:34;15.30;99.90
22940;DHT22;11636;52.086;5.090;2023-08-01T01:32:28;15.30;99.90
22940;DHT22;11636;52.086;5.090;2023-08-01T01:35:16;15.30;99.90
22940;DHT22;11636;52.086;5.090;2023-08-01T01:38:09;15.30;99.90
22940;DHT22;11636;52.086;5.090;2023-08-01T01:40:56;15.30;99.90
22940;DHT22;11636;52.086;5.090;2023-08-01T01:43:50;15.20;99.90
22940;DHT22;11636;52.086;5.090;2023-08-01T01:46:37;15.20;99.90
22940;DHT22;11636;52.086;5.090;2023-08-01T01:49:31;15.20;99.90
22940;DHT22;11636;52.086;5.090;2023-08-01T01:52:18;15.20;99.90
22940;DHT22;11636;52.086;5.090;2023-08-01T01:55:12;15.20;99.90
22940;DHT22;11636;52.086;5.090;2023-08-01T01:58:06;15.10;99.90
22940;DHT22;11636;52.086;5.090;2023-08-01T02:01:00;15.10;99.90
22940;DHT22;11636;52.086;5.090;2023-08-01T02:03:54;15.10;99.90
22940;DHT22;11636;52.086;5.090;2023-08-01T02:06:41;15.10;99.90
22940;DHT22;11636;52.086;5.090;2023-08-01T02:09:35;15.20;99.90
22940;DHT22;11636;52.086;5.090;2023-08-01T02:12:22;15.20;99.90
22940;DHT22;11636;52.086;5.090;2023-08-01T02:15:16;15.20;99.90
22940;DHT22;11636;52.086;5.090;2023-08-01T02:18:03;15.20;99.90
22940;DHT22;11636;52.086;5.090;2023-08-01T02:20:57;15.20;99.90
22940;DHT22;11636;52.086;5.090;2023-08-01T02:23:51;15.20;99.90
22940;DHT22;11636;52.086;5.090;2023-08-01T02:26:45;15.20;99.90
22940;DHT22;11636;52.086;5.090;2023-08-01T02:29:39;15.20;99.90
22940;DHT22;11636;52.086;5.090;2023-08-01T02:32:26;15.30;99.90
22940;DHT22;11636;52.086;5.090;2023-08-01T02:35:20;15.30;99.90
22940;DHT22;11636;52.086;5.090;2023-08-01T02:38:07;15.30;99.90
22940;DHT22;11636;52.086;5.090;2023-08-01T02:41:01;15.30;99.90
22940;DHT22;11636;52.086;5.090;2023-08-01T02:43:55;15.30;99.90
22940;DHT22;11636;52.086;5.090;2023-08-01T02:46:49;15.40;99.90
22940;DHT22;11636;52.086;5.090;2023-08-01T02:49:43;15.40;99.90
22940;DHT22;11636;52.086;5.090;2023-08-01T02:52:31;15.50;99.90
22940;DHT22;11636;52.086;5.090;2023-08-01T02:55:24;15.50;99.90
22940;DHT22;11636;52.086;5.090;2023-08-01T02:58:26;15.50;99.90
22940;DHT22;11636;52.086;5.090;2023-08-01T03:01:19;15.50;99.90
22940;DHT22;11636;52.086;5.090;2023-08-01T03:04:13;15.60;99.90
22940;DHT22;11636;52.086;5.090;2023-08-01T03:07:26;15.60;99.90
22940;DHT22;11636;52.086;5.090;2023-08-01T03:10:20;15.60;99.90
22940;DHT22;11636;52.086;5.090;2023-08-01T03:13:22;15.60;99.90
22940;DHT22;11636;52.086;5.090;2023-08-01T03:16:17;15.60;99.90
22940;DHT22;11636;52.086;5.090;2023-08-01T03:19:04;15.50;99.90
22940;DHT22;11636;52.086;5.090;2023-08-01T03:21:58;15.50;99.90
22940;DHT22;11636;52.086;5.090;2023-08-01T03:24:52;15.40;99.90
22940;DHT22;11636;52.086;5.090;2023-08-01T03:27:46;15.40;99.90
22940;DHT22;11636;52.086;5.090;2023-08-01T03:30:40;15.20;99.90
22940;DHT22;11636;52.086;5.090;2023-08-01T03:33:27;15.30;99.90
22940;DHT22;11636;52.086;5.090;2023-08-01T03:36:21;15.30;99.90
22940;DHT22;11636;52.086;5.090;2023-08-01T03:39:08;15.20;99.90
22940;DHT22;11636;52.086;5.090;2023-08-01T03:42:03;15.10;99.90
22940;DHT22;11636;52.086;5.090;2023-08-01T03:44:50;15.10;99.90
22940;DHT22;11636;52.086;5.090;2023-08-01T03:47:44;15.00;99.90
22940;DHT22;11636;52.086;5.090;2023-08-01T03:50:31;15.00;99.90
22940;DHT22;11636;52.086;5.090;2023-08-01T03:53:25;15.00;99.90
22940;DHT22;11636;52.086;5.090;2023-08-01T03:56:19;15.10;99.90
22940;DHT22;11636;52.086;5.090;2023-08-01T03:59:06;15.10;99.90
22940;DHT22;11636;52.086;5.090;2023-08-01T04:02:00;15.10;99.90
22940;DHT22;11636;52.086;5.090;2023-08-01T04:04:47;15.20;99.90
22940;DHT22;11636;52.086;5.090;2023-08-01T04:07:42;15.30;99.90
22940;DHT22;11636;52.086;5.090;2023-08-01T04:10:29;15.30;99.90
22940;DHT22;11636;52.086;5.090;2023-08-01T04:13:22;15.20;99.90
22940;DHT22;11636;52.086;5.090;2023-08-01T04:16:10;15.30;99.90
22940;DHT22;11636;52.086;5.090;2023-08-01T04:19:03;15.30;99.90
22940;DHT22;11636;52.086;5.090;2023-08-01T04:21:57;15.30;99.90
22940;DHT22;11636;52.086;5.090;2023-08-01T04:24:44;15.30;99.90
22940;DHT22;11636;52.086;5.090;2023-08-01T04:27:38;15.40;99.90
22940;DHT22;11636;52.086;5.090;2023-08-01T04:30:25;15.40;99.90
22940;DHT22;11636;52.086;5.090;2023-08-01T04:33:19;15.40;99.90
22940;DHT22;11636;52.086;5.090;2023-08-01T04:36:06;15.50;99.90
22940;DHT22;11636;52.086;5.090;2023-08-01T04:39:00;15.50;99.90
22940;DHT22;11636;52.086;5.090;2023-08-01T04:41:54;15.50;99.90
22940;DHT22;11636;52.086;5.090;2023-08-01T04:44:55;15.50;99.90
22940;DHT22;11636;52.086;5.090;2023-08-01T04:47:48;15.60;99.90
22940;DHT22;11636;52.086;5.090;2023-08-01T04:50:36;15.60;99.90
22940;DHT22;11636;52.086;5.090;2023-08-01T04:53:29;15.60;99.90
22940;DHT22;11636;52.086;5.090;2023-08-01T04:56:17;15.60;99.90
22940;DHT22;11636;52.086;5.090;2023-08-01T04:59:10;15.60;99.90
22940;DHT22;11636;52.086;5.090;2023-08-01T05:01:58;15.60;99.90
22940;DHT22;11636;52.086;5.090;2023-08-01T05:04:52;15.60;99.90
22940;DHT22;11636;52.086;5.090;2023-08-01T05:07:39;15.60;99.90
22940;DHT22;11636;52.086;5.090;2023-08-01T05:10:32;15.60;99.90
22940;DHT22;11636;52.086;5.090;2023-08-01T05:13:26;15.60;99.90
22940;DHT22;11636;52.086;5.090;2023-08-01T05:16:14;15.60;99.90
22940;DHT22;11636;52.086;5.090;2023-08-01T05:19:07;15.70;99.90
22940;DHT22;11636;52.086;5.090;2023-08-01T05:21:55;15.70;99.90
22940;DHT22;11636;52.086;5.090;2023-08-01T05:24:49;15.70;99.90
22940;DHT22;11636;52.086;5.090;2023-08-01T05:27:36;15.70;99.90
22940;DHT22;11636;52.086;5.090;2023-08-01T05:30:29;15.70;99.90
22940;DHT22;11636;52.086;5.090;2023-08-01T05:33:17;15.70;99.90
22940;DHT22;11636;52.086;5.090;2023-08-01T05:36:11;15.70;99.90
22940;DHT22;11636;52.086;5.090;2023-08-01T05:39:04;15.80;99.90
22940;DHT22;11636;52.086;5.090;2023-08-01T05:41:52;15.80;99.90
22940;DHT22;11636;52.086;5.090;2023-08-01T05:44:45;15.70;99.90
22940;DHT22;11636;52.086;5.090;2023-08-01T05:47:33;15.70;99.90
22940;DHT22;11636;52.086;5.090;2023-08-01T05:50:27;15.60;99.90
22940;DHT22;11636;52.086;5.090;2023-08-01T05:53:14;15.70;99.90
22940;DHT22;11636;52.086;5.090;2023-08-01T05:56:07;15.60;99.90
22940;DHT22;11636;52.086;5.090;2023-08-01T05:58:55;15.60;99.90
22940;DHT22;11636;52.086;5.090;2023-08-01T06:01:49;15.60;99.90
22940;DHT22;11636;52.086;5.090;2023-08-01T06:04:43;15.60;99.90
22940;DHT22;11636;52.086;5.090;2023-08-01T06:07:36;15.60;99.90
22940;DHT22;11636;52.086;5.090;2023-08-01T06:10:24;15.60;99.90
22940;DHT22;11636;52.086;5.090;2023-08-01T06:13:18;15.70;99.90
22940;DHT22;11636;52.086;5.090;2023-08-01T06:16:11;15.70;99.90
22940;DHT22;11636;52.086;5.090;2023-08-01T06:19:06;15.70;99.90
22940;DHT22;11636;52.086;5.090;2023-08-01T06:22:00;15.80;99.90
22940;DHT22;11636;52.086;5.090;2023-08-01T06:24:54;15.90;99.90
22940;DHT22;11636;52.086;5.090;2023-08-01T06:27:41;16.00;99.90
22940;DHT22;11636;52.086;5.090;2023-08-01T06:30:38;16.00;99.90
22940;DHT22;11636;52.086;5.090;2023-08-01T06:33:32;16.10;99.90
22940;DHT22;11636;52.086;5.090;2023-08-01T06:36:26;16.10;99.90
22940;DHT22;11636;52.086;5.090;2023-08-01T06:39:13;16.10;99.90
22940;DHT22;11636;52.086;5.090;2023-08-01T06:42:07;16.20;99.90
22940;DHT22;11636;52.086;5.090;2023-08-01T06:44:54;16.20;99.90
22940;DHT22;11636;52.086;5.090;2023-08-01T06:47:48;16.30;99.90
22940;DHT22;11636;52.086;5.090;2023-08-01T06:50:42;16.30;99.90
22940;DHT22;11636;52.086;5.090;2023-08-01T06:53:29;16.50;99.90
22940;DHT22;11636;52.086;5.090;2023-08-01T06:56:23;16.60;99.90
22940;DHT22;11636;52.086;5.090;2023-08-01T06:59:17;16.80;99.90
22940;DHT22;11636;52.086;5.090;2023-08-01T07:02:11;16.80;99.90
22940;DHT22;11636;52.086;5.090;2023-08-01T07:05:05;16.80;99.90
22940;DHT22;11636;52.086;5.090;2023-08-01T07:07:52;16.70;99.90
22940;DHT22;11636;52.086;5.090;2023-08-01T07:10:46;16.70;99.90
22940;DHT22;11636;52.086;5.090;2023-08-01T07:13:40;16.70;99.90
22940;DHT22;11636;52.086;5.090;2023-08-01T07:16:27;16.70;99.90
22940;DHT22;11636;52.086;5.090;2023-08-01T07:19:21;16.80;99.90
22940;DHT22;11636;52.086;5.090;2023-08-01T07:22:08;16.60;99.90
22940;DHT22;11636;52.086;5.090;2023-08-01T07:25:03;16.40;99.90
22940;DHT22;11636;52.086;5.090;2023-08-01T07:27:58;16.20;99.90
22940;DHT22;11636;52.086;5.090;2023-08-01T07:31:03;16.00;99.90
22940;DHT22;11636;52.086;5.090;2023-08-01T07:33:51;16.00;99.90
22940;DHT22;11636;52.086;5.090;2023-08-01T07:36:47;16.00;99.90
22940;DHT22;11636;52.086;5.090;2023-08-01T07:39:35;16.00;99.90
22940;DHT22;11636;52.086;5.090;2023-08-01T07:42:29;16.10;99.90
22940;DHT22;11636;52.086;5.090;2023-08-01T07:45:17;16.20;99.90
22940;DHT22;11636;52.086;5.090;2023-08-01T07:48:11;16.30;99.90
22940;DHT22;11636;52.086;5.090;2023-08-01T07:51:05;16.40;99.90
22940;DHT22;11636;52.086;5.090;2023-08-01T07:54:01;16.50;99.90
22940;DHT22;11636;52.086;5.090;2023-08-01T07:56:48;16.60;99.90
22940;DHT22;11636;52.086;5.090;2023-08-01T07:59:42;16.70;99.90
22940;DHT22;11636;52.086;5.090;2023-08-01T08:02:36;16.80;99.90
22940;DHT22;11636;52.086;5.090;2023-08-01T08:05:23;16.80;99.90
22940;DHT22;11636;52.086;5.090;2023-08-01T08:08:17;16.90;99.90
22940;DHT22;11636;52.086;5.090;2023-08-01T08:11:11;17.00;99.90
22940;DHT22;11636;52.086;5.090;2023-08-01T08:13:58;17.10;99.90
22940;DHT22;11636;52.086;5.090;2023-08-01T08:16:52;17.20;99.90
22940;DHT22;11636;52.086;5.090;2023-08-01T08:19:39;17.30;99.90
22940;DHT22;11636;52.086;5.090;2023-08-01T08:22:33;17.40;99.90
22940;DHT22;11636;52.086;5.090;2023-08-01T08:25:20;17.50;99.90
22940;DHT22;11636;52.086;5.090;2023-08-01T08:28:14;17.70;99.90
22940;DHT22;11636;52.086;5.090;2023-08-01T08:31:02;17.70;99.90
22940;DHT22;11636;52.086;5.090;2023-08-01T08:33:57;17.80;99.90
22940;DHT22;11636;52.086;5.090;2023-08-01T08:36:44;17.90;99.90
22940;DHT22;11636;52.086;5.090;2023-08-01T08:39:41;17.90;99.90
22940;DHT22;11636;52.086;5.090;2023-08-01T08:42:28;17.90;99.90
22940;DHT22;11636;52.086;5.090;2023-08-01T08:45:22;18.10;99.90
22940;DHT22;11636;52.086;5.090;2023-08-01T08:48:13;18.40;99.90
22940;DHT22;11636;52.086;5.090;2023-08-01T08:51:09;18.40;99.90
22940;DHT22;11636;52.086;5.090;2023-08-01T08:53:56;18.40;99.90
22940;DHT22;11636;52.086;5.090;2023-08-01T08:56:50;18.50;99.90
22940;DHT22;11636;52.086;5.090;2023-08-01T08:59:45;18.50;99.90
22940;DHT22;11636;52.086;5.090;2023-08-01T09:02:33;18.50;99.90
22940;DHT22;11636;52.086;5.090;2023-08-01T09:05:37;18.40;99.90
22940;DHT22;11636;52.086;5.090;2023-08-01T09:08:36;18.40;99.90
22940;DHT22;11636;52.086;5.090;2023-08-01T09:11:24;18.30;99.90
22940;DHT22;11636;52.086;5.090;2023-08-01T09:14:19;18.40;99.90
22940;DHT22;11636;52.086;5.090;2023-08-01T09:17:09;18.40;99.90
22940;DHT22;11636;52.086;5.090;2023-08-01T09:20:07;18.30;99.90
22940;DHT22;11636;52.086;5.090;2023-08-01T09:23:01;18.40;99.90
22940;DHT22;11636;52.086;5.090;2023-08-01T09:25:55;18.70;99.90
22940;DHT22;11636;52.086;5.090;2023-08-01T09:28:56;19.00;99.90
22940;DHT22;11636;52.086;5.090;2023-08-01T09:31:44;19.20;99.90
22940;DHT22;11636;52.086;5.090;2023-08-01T09:34:38;19.10;99.90
22940;DHT22;11636;52.086;5.090;2023-08-01T09:37:25;18.80;99.90
22940;DHT22;11636;52.086;5.090;2023-08-01T09:40:19;18.80;99.90
22940;DHT22;11636;52.086;5.090;2023-08-01T09:43:06;18.80;99.90
22940;DHT22;11636;52.086;5.090;2023-08-01T09:46:00;18.80;99.90
22940;DHT22;11636;52.086;5.090;2023-08-01T09:48:54;18.60;99.90
22940;DHT22;11636;52.086;5.090;2023-08-01T09:51:49;18.60;99.90
22940;DHT22;11636;52.086;5.090;2023-08-01T09:54:43;18.70;99.90
22940;DHT22;11636;52.086;5.090;2023-08-01T09:57:30;18.90;99.90
22940;DHT22;11636;52.086;5.090;2023-08-01T10:00:28;19.30;99.90
22940;DHT22;11636;52.086;5.090;2023-08-01T10:03:16;19.60;99.90
22940;DHT22;11636;52.086;5.090;2023-08-01T10:06:12;19.70;99.90
22940;DHT22;11636;52.086;5.090;2023-08-01T10:09:01;19.90;99.90
22940;DHT22;11636;52.086;5.090;2023-08-01T10:11:57;19.90;99.90
22940;DHT22;11636;52.086;5.090;2023-08-01T10:14:52;19.90;99.90
22940;DHT22;11636;52.086;5.090;2023-08-01T10:17:40;20.10;99.90
22940;DHT22;11636;52.086;5.090;2023-08-01T10:20:36;20.30;99.90
22940;DHT22;11636;52.086;5.090;2023-08-01T10:23:32;20.20;99.90
22940;DHT22;11636;52.086;5.090;2023-08-01T10:26:19;19.90;99.90
22940;DHT22;11636;52.086;5.090;2023-08-01T10:29:13;19.60;99.90
22940;DHT22;11636;52.086;5.090;2023-08-01T10:32:00;19.70;99.90
22940;DHT22;11636;52.086;5.090;2023-08-01T10:34:54;19.90;99.90
22940;DHT22;11636;52.086;5.090;2023-08-01T10:37:48;20.10;99.90
22940;DHT22;11636;52.086;5.090;2023-08-01T10:40:42;20.30;99.90
22940;DHT22;11636;52.086;5.090;2023-08-01T10:43:36;20.20;99.90
22940;DHT22;11636;52.086;5.090;2023-08-01T10:46:23;20.10;99.90
22940;DHT22;11636;52.086;5.090;2023-08-01T10:49:18;20.30;99.90
22940;DHT22;11636;52.086;5.090;2023-08-01T10:52:19;20.40;99.90
22940;DHT22;11636;52.086;5.090;2023-08-01T10:55:13;20.20;99.90
22940;DHT22;11636;52.086;5.090;2023-08-01T10:58:07;19.80;99.90
22940;DHT22;11636;52.086;5.090;2023-08-01T11:00:58;19.40;99.90
22940;DHT22;11636;52.086;5.090;2023-08-01T11:03:52;19.30;99.90
22940;DHT22;11636;52.086;5.090;2023-08-01T11:06:47;19.20;99.90
22940;DHT22;11636;52.086;5.090;2023-08-01T11:09:41;19.10;99.90
22940;DHT22;11636;52.086;5.090;2023-08-01T11:12:42;19.20;99.90
22940;DHT22;11636;52.086;5.090;2023-08-01T11:15:37;19.50;99.90
22940;DHT22;11636;52.086;5.090;2023-08-01T11:18:42;19.90;99.90
22940;DHT22;11636;52.086;5.090;2023-08-01T11:21:29;20.40;99.90
22940;DHT22;11636;52.086;5.090;2023-08-01T11:24:24;20.50;99.90
22940;DHT22;11636;52.086;5.090;2023-08-01T11:27:12;20.40;99.90
22940;DHT22;11636;52.086;5.090;2023-08-01T11:30:06;20.40;99.90
22940;DHT22;11636;52.086;5.090;2023-08-01T11:32:53;20.30;99.90
22940;DHT22;11636;52.086;5.090;2023-08-01T11:35:54;20.20;99.90
22940;DHT22;11636;52.086;5.090;2023-08-01T11:38:46;20.10;99.90
22940;DHT22;11636;52.086;5.090;2023-08-01T11:41:42;20.30;99.90
22940;DHT22;11636;52.086;5.090;2023-08-01T11:44:36;20.70;99.90
22940;DHT22;11636;52.086;5.090;2023-08-01T11:47:23;21.00;99.90
22940;DHT22;11636;52.086;5.090;2023-08-01T11:50:22;21.00;99.90
22940;DHT22;11636;52.086;5.090;2023-08-01T11:53:21;20.80;99.90
22940;DHT22;11636;52.086;5.090;2023-08-01T11:56:22;20.50;99.90
22940;DHT22;11636;52.086;5.090;2023-08-01T11:59:16;20.40;99.90
22940;DHT22;11636;52.086;5.090;2023-08-01T12:02:04;20.50;99.90
22940;DHT22;11636;52.086;5.090;2023-08-01T12:04:58;20.40;99.90
22940;DHT22;11636;52.086;5.090;2023-08-01T12:07:45;20.20;99.90
22940;DHT22;11636;52.086;5.090;2023-08-01T12:10:45;19.90;99.90
22940;DHT22;11636;52.086;5.090;2023-08-01T12:13:32;19.70;99.90
22940;DHT22;11636;52.086;5.090;2023-08-01T12:16:26;19.60;99.90
22940;DHT22;11636;52.086;5.090;2023-08-01T12:19:20;19.40;99.90
22940;DHT22;11636;52.086;5.090;2023-08-01T12:22:08;19.60;99.90
22940;DHT22;11636;52.086;5.090;2023-08-01T12:25:01;19.80;99.90
22940;DHT22;11636;52.086;5.090;2023-08-01T12:27:49;19.90;99.90
22940;DHT22;11636;52.086;5.090;2023-08-01T12:30:43;19.80;99.90
22940;DHT22;11636;52.086;5.090;2023-08-01T12:33:32;20.00;99.90
22940;DHT22;11636;52.086;5.090;2023-08-01T12:36:26;20.20;99.90
22940;DHT22;11636;52.086;5.090;2023-08-01T12:39:13;20.10;99.90
22940;DHT22;11636;52.086;5.090;2023-08-01T12:42:07;20.00;99.90
22940;DHT22;11636;52.086;5.090;2023-08-01T12:45:02;19.90;99.90
22940;DHT22;11636;52.086;5.090;2023-08-01T12:47:50;19.70;99.90
22940;DHT22;11636;52.086;5.090;2023-08-01T12:50:44;19.40;99.90
22940;DHT22;11636;52.086;5.090;2023-08-01T12:53:32;19.00;99.90
22940;DHT22;11636;52.086;5.090;2023-08-01T12:56:27;18.80;99.90
22940;DHT22;11636;52.086;5.090;2023-08-01T12:59:14;18.90;99.90
22940;DHT22;11636;52.086;5.090;2023-08-01T13:02:07;19.20;99.90
22940;DHT22;11636;52.086;5.090;2023-08-01T13:05:01;19.40;99.90
22940;DHT22;11636;52.086;5.090;2023-08-01T13:07:49;19.60;99.90
22940;DHT22;11636;52.086;5.090;2023-08-01T13:10:43;19.70;99.90
22940;DHT22;11636;52.086;5.090;2023-08-01T13:13:33;19.90;99.90
22940;DHT22;11636;52.086;5.090;2023-08-01T13:16:26;20.10;99.90
22940;DHT22;11636;52.086;5.090;2023-08-01T13:19:13;20.30;99.90
22940;DHT22;11636;52.086;5.090;2023-08-01T13:22:07;20.60;99.90
22940;DHT22;11636;52.086;5.090;2023-08-01T13:24:54;20.90;99.90
22940;DHT22;11636;52.086;5.090;2023-08-01T13:27:48;21.00;99.90
22940;DHT22;11636;52.086;5.090;2023-08-01T13:30:35;21.10;99.90
22940;DHT22;11636;52.086;5.090;2023-08-01T13:33:29;21.20;99.90
22940;DHT22;11636;52.086;5.090;2023-08-01T13:36:18;21.30;99.90
22940;DHT22;11636;52.086;5.090;2023-08-01T13:39:11;21.00;99.90
22940;DHT22;11636;52.086;5.090;2023-08-01T13:41:59;20.80;99.90
22940;DHT22;11636;52.086;5.090;2023-08-01T13:44:54;20.50;99.90
22940;DHT22;11636;52.086;5.090;2023-08-01T13:47:47;20.40;99.90
22940;DHT22;11636;52.086;5.090;2023-08-01T13:50:35;20.40;99.90
22940;DHT22;11636;52.086;5.090;2023-08-01T13:53:28;20.50;99.90
22940;DHT22;11636;52.086;5.090;2023-08-01T13:56:22;20.40;99.90
22940;DHT22;11636;52.086;5.090;2023-08-01T13:59:09;20.10;99.90
22940;DHT22;11636;52.086;5.090;2023-08-01T14:02:03;19.90;99.90
22940;DHT22;11636;52.086;5.090;2023-08-01T14:04:53;19.60;99.90
22940;DHT22;11636;52.086;5.090;2023-08-01T14:07:47;19.50;99.90
22940;DHT22;11636;52.086;5.090;2023-08-01T14:10:34;19.40;99.90
22940;DHT22;11636;52.086;5.090;2023-08-01T14:13:28;19.40;99.90
22940;DHT22;11636;52.086;5.090;2023-08-01T14:16:16;19.50;99.90
22940;DHT22;11636;52.086;5.090;2023-08-01T14:19:09;19.60;99.90
22940;DHT22;11636;52.086;5.090;2023-08-01T14:21:57;19.80;99.90
22940;DHT22;11636;52.086;5.090;2023-08-01T14:24:53;20.00;99.90
22940;DHT22;11636;52.086;5.090;2023-08-01T14:27:47;20.20;99.90
22940;DHT22;11636;52.086;5.090;2023-08-01T14:30:35;20.30;99.90
22940;DHT22;11636;52.086;5.090;2023-08-01T14:33:29;20.20;99.90
22940;DHT22;11636;52.086;5.090;2023-08-01T14:36:16;20.30;99.90
22940;DHT22;11636;52.086;5.090;2023-08-01T14:39:09;20.20;99.90
22940;DHT22;11636;52.086;5.090;2023-08-01T14:42:09;20.00;99.90
22940;DHT22;11636;52.086;5.090;2023-08-01T14:45:03;19.80;99.90
22940;DHT22;11636;52.086;5.090;2023-08-01T14:47:50;19.70;99.90
22940;DHT22;11636;52.086;5.090;2023-08-01T14:50:44;19.70;99.90
22940;DHT22;11636;52.086;5.090;2023-08-01T14:53:38;19.60;99.90
22940;DHT22;11636;52.086;5.090;2023-08-01T14:56:25;19.40;99.90
22940;DHT22;11636;52.086;5.090;2023-08-01T14:59:19;19.20;99.90
22940;DHT22;11636;52.086;5.090;2023-08-01T15:02:07;19.10;99.90
22940;DHT22;11636;52.086;5.090;2023-08-01T15:05:00;19.00;99.90
22940;DHT22;11636;52.086;5.090;2023-08-01T15:07:49;18.90;99.90
22940;DHT22;11636;52.086;5.090;2023-08-01T15:10:42;18.80;99.90
22940;DHT22;11636;52.086;5.090;2023-08-01T15:13:30;18.60;99.90
22940;DHT22;11636;52.086;5.090;2023-08-01T15:16:23;18.20;99.90
22940;DHT22;11636;52.086;5.090;2023-08-01T15:19:11;17.90;99.90
22940;DHT22;11636;52.086;5.090;2023-08-01T15:22:11;17.70;99.90
22940;DHT22;11636;52.086;5.090;2023-08-01T15:25:05;17.20;99.90
22940;DHT22;11636;52.086;5.090;2023-08-01T15:27:59;16.70;99.90
22940;DHT22;11636;52.086;5.090;2023-08-01T15:30:47;16.30;99.90
22940;DHT22;11636;52.086;5.090;2023-08-01T15:33:41;16.10;99.90
22940;DHT22;11636;52.086;5.090;2023-08-01T15:36:35;16.00;99.90
22940;DHT22;11636;52.086;5.090;2023-08-01T15:39:29;16.00;99.90
22940;DHT22;11636;52.086;5.090;2023-08-01T15:42:16;16.10;99.90
22940;DHT22;11636;52.086;5.090;2023-08-01T15:45:10;16.30;99.90
22940;DHT22;11636;52.086;5.090;2023-08-01T15:47:57;16.60;99.90
22940;DHT22;11636;52.086;5.090;2023-08-01T15:50:51;16.90;99.90
22940;DHT22;11636;52.086;5.090;2023-08-01T15:53:38;17.20;99.90
22940;DHT22;11636;52.086;5.090;2023-08-01T15:56:31;17.50;99.90
22940;DHT22;11636;52.086;5.090;2023-08-01T15:59:26;17.90;99.90
22940;DHT22;11636;52.086;5.090;2023-08-01T16:02:13;18.30;99.90
22940;DHT22;11636;52.086;5.090;2023-08-01T16:05:09;18.50;99.90
22940;DHT22;11636;52.086;5.090;2023-08-01T16:07:57;18.60;99.90
22940;DHT22;11636;52.086;5.090;2023-08-01T16:10:50;18.70;99.90
22940;DHT22;11636;52.086;5.090;2023-08-01T16:13:37;18.60;99.90
22940;DHT22;11636;52.086;5.090;2023-08-01T16:16:31;18.60;99.90
22940;DHT22;11636;52.086;5.090;2023-08-01T16:19:19;18.70;99.90
22940;DHT22;11636;52.086;5.090;2023-08-01T16:22:13;18.70;99.90
22940;DHT22;11636;52.086;5.090;2023-08-01T16:25:00;18.70;99.90
22940;DHT22;11636;52.086;5.090;2023-08-01T16:27:54;18.70;99.90
22940;DHT22;11636;52.086;5.090;2023-08-01T16:30:41;18.80;99.90
22940;DHT22;11636;52.086;5.090;2023-08-01T16:33:34;18.90;99.90
22940;DHT22;11636;52.086;5.090;2023-08-01T16:36:29;18.80;99.90
22940;DHT22;11636;52.086;5.090;2023-08-01T16:39:16;18.70;99.90
22940;DHT22;11636;52.086;5.090;2023-08-01T16:42:10;18.60;99.90
22940;DHT22;11636;52.086;5.090;2023-08-01T16:44:57;18.60;99.90
22940;DHT22;11636;52.086;5.090;2023-08-01T16:47:51;18.60;99.90
22940;DHT22;11636;52.086;5.090;2023-08-01T16:50:38;18.60;99.90
22940;DHT22;11636;52.086;5.090;2023-08-01T16:53:32;18.60;99.90
22940;DHT22;11636;52.086;5.090;2023-08-01T16:56:25;18.60;99.90
22940;DHT22;11636;52.086;5.090;2023-08-01T16:59:13;18.60;99.90
22940;DHT22;11636;52.086;5.090;2023-08-01T17:02:07;18.60;99.90
22940;DHT22;11636;52.086;5.090;2023-08-01T17:04:55;18.60;99.90
22940;DHT22;11636;52.086;5.090;2023-08-01T17:07:49;18.70;99.90
22940;DHT22;11636;52.086;5.090;2023-08-01T17:10:43;18.70;99.90
22940;DHT22;11636;52.086;5.090;2023-08-01T17:13:30;18.80;99.90
22940;DHT22;11636;52.086;5.090;2023-08-01T17:16:24;18.80;99.90
22940;DHT22;11636;52.086;5.090;2023-08-01T17:19:14;18.80;99.90
22940;DHT22;11636;52.086;5.090;2023-08-01T17:22:09;18.90;99.90
22940;DHT22;11636;52.086;5.090;2023-08-01T17:24:56;18.90;99.90
22940;DHT22;11636;52.086;5.090;2023-08-01T17:27:50;18.90;99.90
22940;DHT22;11636;52.086;5.090;2023-08-01T17:30:46;18.90;99.90
22940;DHT22;11636;52.086;5.090;2023-08-01T17:33:40;18.90;99.90
22940;DHT22;11636;52.086;5.090;2023-08-01T17:36:34;18.90;99.90
22940;DHT22;11636;52.086;5.090;2023-08-01T17:39:21;18.80;99.90
22940;DHT22;11636;52.086;5.090;2023-08-01T17:42:15;18.80;99.90
22940;DHT22;11636;52.086;5.090;2023-08-01T17:45:09;18.70;99.90
22940;DHT22;11636;52.086;5.090;2023-08-01T17:47:57;18.70;99.90
22940;DHT22;11636;52.086;5.090;2023-08-01T17:50:51;18.70;99.90
22940;DHT22;11636;52.086;5.090;2023-08-01T17:53:38;18.60;99.90
22940;DHT22;11636;52.086;5.090;2023-08-01T17:56:32;18.60;99.90
22940;DHT22;11636;52.086;5.090;2023-08-01T17:59:26;18.60;99.90
22940;DHT22;11636;52.086;5.090;2023-08-01T18:02:21;18.50;99.90
22940;DHT22;11636;52.086;5.090;2023-08-01T18:05:08;18.50;99.90